createdAt,value
2023-05-23T00:01:09.385Z,3.40
2023-05-23T00:03:37.819Z,4.40
2023-05-23T00:06:06.746Z,4.30
2023-05-23T00:08:34.405Z,3.20
2023-05-23T00:11:01.962Z,4.70
2023-05-23T00:13:29.625Z,3.80
2023-05-23T00:15:57.806Z,3.10
2023-05-23T00:18:25.773Z,4.70
2023-05-23T00:20:54.148Z,3.70
2023-05-23T00:23:22.941Z,2.90
2023-05-23T00:25:53.514Z,4.50
2023-05-23T00:28:21.253Z,4.80
2023-05-23T00:30:51.912Z,3.80
2023-05-23T00:33:22.555Z,3.70
2023-05-23T00:35:50.785Z,3.30
2023-05-23T00:38:19.763Z,3.10
2023-05-23T00:40:48.621Z,2.60
2023-05-23T00:43:16.631Z,3.50
2023-05-23T00:45:44.499Z,4.50
2023-05-23T00:48:12.575Z,4.50
2023-05-23T00:50:41.051Z,4.40
2023-05-23T00:53:08.820Z,4.60
2023-05-23T00:55:36.483Z,3.80
2023-05-23T00:58:04.144Z,4.80
2023-05-23T01:00:31.804Z,4.00
2023-05-23T01:02:59.749Z,4.70
2023-05-23T01:05:27.740Z,3.90
2023-05-23T01:07:55.913Z,3.20
2023-05-23T01:10:25.423Z,4.10
2023-05-23T01:13:05.668Z,3.80
2023-05-23T01:15:58.626Z,5.00
2023-05-23T01:18:30.928Z,3.90
2023-05-23T01:21:06.759Z,3.90
2023-05-23T01:23:56.126Z,4.60
2023-05-23T01:26:39.361Z,4.00
2023-05-23T01:29:12.350Z,3.90
2023-05-23T01:31:45.417Z,8.20
2023-05-23T01:34:13.813Z,4.40
2023-05-23T01:36:42.814Z,5.00
2023-05-23T01:39:10.878Z,3.80
2023-05-23T01:41:38.546Z,4.70
2023-05-23T01:44:06.309Z,5.20
2023-05-23T01:46:34.125Z,6.90
2023-05-23T01:49:03.067Z,6.50
2023-05-23T01:51:31.042Z,7.50
2023-05-23T01:53:58.798Z,4.30
2023-05-23T01:56:28.515Z,4.40
2023-05-23T01:58:56.179Z,5.70
2023-05-23T02:01:23.848Z,8.30
2023-05-23T02:03:52.320Z,6.50
2023-05-23T02:06:19.978Z,5.30
2023-05-23T02:08:47.950Z,4.80
2023-05-23T02:11:16.427Z,5.00
2023-05-23T02:13:43.992Z,4.90
2023-05-23T02:16:11.966Z,4.80
2023-05-23T02:18:40.139Z,3.90
2023-05-23T02:21:07.799Z,8.50
2023-05-23T02:23:38.124Z,4.50
2023-05-23T02:26:06.199Z,4.80
2023-05-23T02:28:33.755Z,3.90
2023-05-23T02:31:01.600Z,4.50
2023-05-23T02:33:29.804Z,4.40
2023-05-23T02:35:57.477Z,6.40
2023-05-23T02:38:27.085Z,6.00
2023-05-23T02:40:57.191Z,5.50
2023-05-23T02:43:25.262Z,6.60
2023-05-23T02:45:53.140Z,4.90
2023-05-23T02:48:20.889Z,7.20
2023-05-23T02:50:48.861Z,6.70
2023-05-23T02:53:16.524Z,6.50
2023-05-23T02:55:44.390Z,5.20
2023-05-23T02:58:12.401Z,5.30
2023-05-23T03:00:40.226Z,4.10
2023-05-23T03:03:08.328Z,3.90
2023-05-23T03:05:36.785Z,5.10
2023-05-23T03:08:05.679Z,6.70
2023-05-23T03:10:33.341Z,5.00
2023-05-23T03:13:01.105Z,4.80
2023-05-23T03:15:28.972Z,5.30
2023-05-23T03:17:56.793Z,4.80
2023-05-23T03:20:24.509Z,5.30
2023-05-23T03:22:52.164Z,4.20
2023-05-23T03:25:19.826Z,4.30
2023-05-23T03:27:48.509Z,4.00
2023-05-23T03:30:18.669Z,4.20
2023-05-23T03:32:46.845Z,14.60
2023-05-23T03:35:14.578Z,4.80
2023-05-23T03:37:42.084Z,4.70
2023-05-23T03:40:11.038Z,6.10
2023-05-23T03:42:39.365Z,4.50
2023-05-23T03:45:07.779Z,4.90
2023-05-23T03:47:35.787Z,7.60
2023-05-23T03:50:03.841Z,5.70
2023-05-23T03:52:32.001Z,7.60
2023-05-23T03:55:01.755Z,4.80
2023-05-23T03:57:30.701Z,5.80
2023-05-23T03:59:58.590Z,6.60
2023-05-23T04:02:26.851Z,6.40
2023-05-23T04:04:57.474Z,8.80
2023-05-23T04:07:26.839Z,4.40
2023-05-23T04:09:54.647Z,4.40
2023-05-23T04:12:22.317Z,4.30
2023-05-23T04:14:50.489Z,5.70
2023-05-23T04:17:18.972Z,5.50
2023-05-23T04:19:46.571Z,5.50
2023-05-23T04:22:14.376Z,6.30
2023-05-23T04:24:42.750Z,4.90
2023-05-23T04:27:10.773Z,4.00
2023-05-23T04:29:38.384Z,4.10
2023-05-23T04:32:06.988Z,6.50
2023-05-23T04:34:35.766Z,4.30
2023-05-23T04:37:03.635Z,6.30
2023-05-23T04:39:32.721Z,5.20
2023-05-23T04:42:27.830Z,4.70
2023-05-23T04:45:04.507Z,5.10
2023-05-23T04:47:48.298Z,5.50
2023-05-23T04:50:33.520Z,4.30
2023-05-23T04:53:01.286Z,5.80
2023-05-23T04:55:29.260Z,4.40
2023-05-23T04:57:58.143Z,4.00
2023-05-23T05:00:27.894Z,5.40
2023-05-23T05:02:55.550Z,5.90
2023-05-23T05:05:28.307Z,4.10
2023-05-23T05:07:57.700Z,5.00
2023-05-23T05:10:25.359Z,5.90
2023-05-23T05:12:53.843Z,4.90
2023-05-23T05:15:22.538Z,6.20
2023-05-23T05:17:54.756Z,4.90
2023-05-23T05:20:23.485Z,5.20
2023-05-23T05:22:56.563Z,5.40
2023-05-23T05:25:28.744Z,4.70
2023-05-23T05:27:56.510Z,4.00
2023-05-23T05:30:24.208Z,4.90
2023-05-23T05:33:00.885Z,4.40
2023-05-23T05:35:30.045Z,5.50
2023-05-23T05:37:57.709Z,6.20
2023-05-23T05:40:25.313Z,4.60
2023-05-23T05:42:54.257Z,5.50
2023-05-23T05:45:23.567Z,4.80
2023-05-23T05:47:52.537Z,5.30
2023-05-23T05:50:22.581Z,6.80
2023-05-23T05:52:50.648Z,5.00
2023-05-23T05:55:18.310Z,5.00
2023-05-23T05:57:50.169Z,5.90
2023-05-23T06:00:19.500Z,5.50
2023-05-23T06:02:47.964Z,8.00
2023-05-23T06:05:19.494Z,5.00
2023-05-23T06:07:50.065Z,4.40
2023-05-23T06:10:17.801Z,5.40
2023-05-23T06:12:46.881Z,5.50
2023-05-23T06:15:16.304Z,7.80
2023-05-23T06:17:45.145Z,6.60
2023-05-23T06:20:13.385Z,8.20
2023-05-23T06:22:42.594Z,8.90
2023-05-23T06:25:10.230Z,4.60
2023-05-23T06:27:39.463Z,5.50
2023-05-23T06:30:08.766Z,5.10
2023-05-23T06:32:37.365Z,6.80
2023-05-23T06:35:06.448Z,6.20
2023-05-23T06:37:35.295Z,5.80
2023-05-23T06:40:04.393Z,7.00
2023-05-23T06:42:32.258Z,6.30
2023-05-23T06:47:45.883Z,5.40
2023-05-23T06:50:14.599Z,6.70
2023-05-23T06:52:43.200Z,5.90
2023-05-23T06:55:15.660Z,6.00
2023-05-23T06:57:44.515Z,7.60
2023-05-23T07:00:14.132Z,6.60
2023-05-23T07:02:50.237Z,6.70
2023-05-23T07:05:20.073Z,5.50
2023-05-23T07:07:49.335Z,11.20
2023-05-23T07:10:17.503Z,6.30
2023-05-23T07:12:47.099Z,5.60
2023-05-23T07:15:16.627Z,4.50
2023-05-23T07:17:56.728Z,6.90
2023-05-23T07:20:24.397Z,7.30
2023-05-23T07:22:53.230Z,4.50
2023-05-23T07:25:23.146Z,5.80
2023-05-23T07:27:52.958Z,4.20
2023-05-23T07:30:22.866Z,4.90
2023-05-23T07:32:53.220Z,8.40
2023-05-23T07:35:26.436Z,5.40
2023-05-23T07:37:54.354Z,8.10
2023-05-23T07:40:22.766Z,5.00
2023-05-23T07:42:50.600Z,5.90
2023-05-23T07:45:18.668Z,5.20
2023-05-23T07:47:46.353Z,5.90
2023-05-23T07:50:14.418Z,5.20
2023-05-23T07:52:42.889Z,5.90
2023-05-23T07:55:11.984Z,6.00
2023-05-23T07:57:39.855Z,7.30
2023-05-23T08:00:12.515Z,7.50
2023-05-23T08:02:42.788Z,7.60
2023-05-23T08:05:14.823Z,7.00
2023-05-23T08:07:42.481Z,4.80
2023-05-23T08:10:10.354Z,5.60
2023-05-23T08:12:38.935Z,4.50
2023-05-23T08:15:10.084Z,6.70
2023-05-23T08:17:43.817Z,8.70
2023-05-23T08:20:12.571Z,5.90
2023-05-23T08:22:40.247Z,4.70
2023-05-23T08:25:09.331Z,6.30
2023-05-23T08:27:38.330Z,7.00
2023-05-23T08:30:13.668Z,6.30
2023-05-23T08:32:41.269Z,4.70
2023-05-23T08:35:09.096Z,6.30
2023-05-23T08:37:37.989Z,9.30
2023-05-23T08:40:08.970Z,5.40
2023-05-23T08:42:43.791Z,5.50
2023-05-23T08:45:12.959Z,5.50
2023-05-23T08:47:46.112Z,6.90
2023-05-23T08:50:20.098Z,8.10
2023-05-23T08:52:55.940Z,4.90
2023-05-23T08:55:26.636Z,5.10
2023-05-23T08:57:55.032Z,5.40
2023-05-23T09:00:30.673Z,4.50
2023-05-23T09:02:58.473Z,4.90
2023-05-23T09:05:56.789Z,5.50
2023-05-23T09:08:28.378Z,6.50
2023-05-23T09:10:59.463Z,6.60
2023-05-23T09:13:29.645Z,4.70
2023-05-23T09:16:00.570Z,7.80
2023-05-23T09:18:42.330Z,5.00
2023-05-23T09:21:12.604Z,4.50
2023-05-23T09:23:48.586Z,7.90
2023-05-23T09:26:16.831Z,4.80
2023-05-23T09:28:44.706Z,3.40
2023-05-23T09:31:13.205Z,3.20
2023-05-23T09:33:49.631Z,4.90
2023-05-23T09:36:18.651Z,3.40
2023-05-23T09:38:49.048Z,5.00
2023-05-23T09:41:16.831Z,2.80
2023-05-23T09:43:55.008Z,3.40
2023-05-23T09:46:28.057Z,7.60
2023-05-23T09:48:57.398Z,5.00
2023-05-23T09:51:26.340Z,4.80
2023-05-23T09:53:54.398Z,4.30
2023-05-23T09:56:23.810Z,3.30
2023-05-23T09:58:52.286Z,2.90
2023-05-23T10:01:20.000Z,2.40
2023-05-23T10:04:00.194Z,4.20
2023-05-23T10:06:37.270Z,6.90
2023-05-23T10:09:06.080Z,3.40
2023-05-23T10:11:34.299Z,4.20
2023-05-23T10:14:03.956Z,5.40
2023-05-23T10:16:44.160Z,4.60
2023-05-23T10:19:36.118Z,3.20
2023-05-23T10:22:08.017Z,3.80
2023-05-23T10:24:36.096Z,4.90
2023-05-23T10:27:03.941Z,2.80
2023-05-23T10:29:34.747Z,4.20
2023-05-23T10:32:06.028Z,4.00
2023-05-23T10:37:36.889Z,8.40
2023-05-23T10:40:22.162Z,4.10
2023-05-23T10:42:57.095Z,5.10
2023-05-23T10:48:43.584Z,10.40
2023-05-23T10:51:14.802Z,5.20
2023-05-23T10:53:45.244Z,4.60
2023-05-23T10:56:25.553Z,4.10
2023-05-23T10:58:55.981Z,3.30
2023-05-23T11:01:24.613Z,5.90
2023-05-23T11:03:56.332Z,4.60
2023-05-23T11:06:35.462Z,8.40
2023-05-23T11:09:08.481Z,4.80
2023-05-23T11:11:55.197Z,5.80
2023-05-23T11:14:38.562Z,5.20
2023-05-23T11:17:13.803Z,5.70
2023-05-23T11:19:42.711Z,5.10
2023-05-23T11:22:12.726Z,3.30
2023-05-23T11:24:53.290Z,3.80
2023-05-23T11:30:15.452Z,5.10
2023-05-23T11:32:50.343Z,4.70
2023-05-23T11:35:17.948Z,5.90
2023-05-23T11:37:45.922Z,4.80
2023-05-23T11:40:27.625Z,5.30
2023-05-23T11:42:56.557Z,5.40
2023-05-23T11:45:24.263Z,7.80
2023-05-23T11:47:52.155Z,4.80
2023-05-23T11:50:21.122Z,6.30
2023-05-23T11:52:52.179Z,6.70
2023-05-23T11:55:21.760Z,4.80
2023-05-23T11:57:50.551Z,9.90
2023-05-23T12:00:19.244Z,5.20
2023-05-23T12:02:49.832Z,5.70
2023-05-23T12:05:18.374Z,9.60
2023-05-23T12:07:48.734Z,5.00
2023-05-23T12:10:22.555Z,5.70
2023-05-23T12:12:51.839Z,6.10
2023-05-23T12:15:20.883Z,5.70
2023-05-23T12:17:49.915Z,6.00
2023-05-23T12:20:18.364Z,5.90
2023-05-23T12:22:46.121Z,6.10
2023-05-23T12:25:13.800Z,5.30
2023-05-23T12:27:44.345Z,9.00
2023-05-23T12:30:17.466Z,6.20
2023-05-23T12:32:47.027Z,6.60
2023-05-23T12:35:17.801Z,5.30
2023-05-23T12:37:49.503Z,4.70
2023-05-23T12:40:18.666Z,5.80
2023-05-23T12:42:53.215Z,5.50
2023-05-23T12:45:24.162Z,7.10
2023-05-23T12:47:54.202Z,7.10
2023-05-23T12:50:23.389Z,6.00
2023-05-23T12:52:52.587Z,7.00
2023-05-23T12:55:20.350Z,8.40
2023-05-23T12:57:48.631Z,6.20
2023-05-23T13:00:18.177Z,5.00
2023-05-23T13:02:46.610Z,6.00
2023-05-23T13:05:14.389Z,4.60
2023-05-23T13:07:42.773Z,5.60
2023-05-23T13:10:11.017Z,6.40
2023-05-23T13:12:38.899Z,6.90
2023-05-23T13:15:07.885Z,7.70
2023-05-23T13:17:35.665Z,5.40
2023-05-23T13:20:05.426Z,6.60
2023-05-23T13:22:34.366Z,6.50
2023-05-23T13:25:02.049Z,7.60
2023-05-23T13:27:30.228Z,4.60
2023-05-23T13:29:57.976Z,7.60
2023-05-23T13:32:26.038Z,6.00
2023-05-23T13:34:53.659Z,4.60
2023-05-23T13:37:21.260Z,7.70
2023-05-23T13:39:48.934Z,9.10
2023-05-23T13:42:16.689Z,3.80
2023-05-23T13:44:45.067Z,7.70
2023-05-23T13:47:13.753Z,9.40
2023-05-23T13:49:42.235Z,7.10
2023-05-23T13:52:10.005Z,7.00
2023-05-23T13:54:37.662Z,7.80
2023-05-23T13:57:05.941Z,5.90
2023-05-23T13:59:34.025Z,6.70
2023-05-23T14:02:01.706Z,6.50
2023-05-23T14:04:29.538Z,7.40
2023-05-23T14:06:57.205Z,8.60
2023-05-23T14:09:24.977Z,6.30
2023-05-23T14:11:52.639Z,10.50
2023-05-23T14:14:20.395Z,4.70
2023-05-23T14:16:50.236Z,4.90
2023-05-23T14:19:18.010Z,11.80
2023-05-23T14:21:45.941Z,11.00
2023-05-23T14:24:13.609Z,9.00
2023-05-23T14:26:41.119Z,5.70
2023-05-23T14:29:08.731Z,6.50
2023-05-23T14:31:36.531Z,5.50
2023-05-23T14:34:04.252Z,7.90
2023-05-23T14:36:32.326Z,6.90
2023-05-23T14:39:01.521Z,7.80
2023-05-23T14:41:29.293Z,5.10
2023-05-23T14:43:56.991Z,9.70
2023-05-23T14:46:24.641Z,5.90
2023-05-23T14:48:52.281Z,4.50
2023-05-23T14:51:34.651Z,8.80
2023-05-23T14:54:07.977Z,8.90
2023-05-23T14:56:38.413Z,6.60
2023-05-23T14:59:06.071Z,6.00
2023-05-23T15:01:33.670Z,5.00
2023-05-23T15:04:01.938Z,15.30
2023-05-23T15:06:29.778Z,7.50
2023-05-23T15:08:57.545Z,11.00
2023-05-23T15:11:27.307Z,7.70
2023-05-23T15:13:55.358Z,5.50
2023-05-23T15:16:23.577Z,6.70
2023-05-23T15:18:51.388Z,6.60
2023-05-23T15:21:19.128Z,6.60
2023-05-23T15:23:46.824Z,5.70
2023-05-23T15:26:14.466Z,5.00
2023-05-23T15:28:42.321Z,4.80
2023-05-23T15:31:10.289Z,6.20
2023-05-23T15:33:37.791Z,7.50
2023-05-23T15:36:05.509Z,5.80
2023-05-23T15:38:33.069Z,5.50
2023-05-23T15:41:01.654Z,4.90
2023-05-23T15:43:29.419Z,7.10
2023-05-23T15:45:57.137Z,4.70
2023-05-23T15:48:24.850Z,8.80
2023-05-23T15:50:52.718Z,5.60
2023-05-23T15:53:21.194Z,6.50
2023-05-23T15:55:48.859Z,6.80
2023-05-23T15:58:16.529Z,6.10
2023-05-23T16:00:44.485Z,6.60
2023-05-23T16:03:12.256Z,5.40
2023-05-23T16:05:40.967Z,5.70
2023-05-23T16:08:09.835Z,5.30
2023-05-23T16:10:37.494Z,7.20
2023-05-23T16:13:05.602Z,5.80
2023-05-23T16:15:33.548Z,7.90
2023-05-23T16:18:02.304Z,4.80
2023-05-23T16:20:30.022Z,5.70
2023-05-23T16:22:57.654Z,7.60
2023-05-23T16:25:25.517Z,9.10
2023-05-23T16:27:53.286Z,8.00
2023-05-23T16:30:20.962Z,5.00
2023-05-23T16:32:49.137Z,4.90
2023-05-23T16:35:16.886Z,7.90
2023-05-23T16:37:44.859Z,8.20
2023-05-23T16:40:12.933Z,13.60
2023-05-23T16:42:41.013Z,9.40
2023-05-23T16:45:08.969Z,9.30
2023-05-23T16:47:36.793Z,7.80
2023-05-23T16:50:05.219Z,6.10
2023-05-23T16:52:32.936Z,6.70
2023-05-23T16:55:01.057Z,5.60
2023-05-23T16:57:28.614Z,8.70
2023-05-23T16:59:56.379Z,22.10
2023-05-23T17:02:24.073Z,89.10
2023-05-23T17:04:52.030Z,65.00
2023-05-23T17:07:20.088Z,20.80
2023-05-23T17:09:47.760Z,18.50
2023-05-23T17:12:15.796Z,9.70
2023-05-23T17:14:43.587Z,11.40
2023-05-23T17:17:11.464Z,6.30
2023-05-23T17:19:39.271Z,4.60
2023-05-23T17:22:07.969Z,13.00
2023-05-23T17:24:37.002Z,15.10
2023-05-23T17:27:05.682Z,8.50
2023-05-23T17:29:33.298Z,6.20
2023-05-23T17:32:01.171Z,5.50
2023-05-23T17:34:29.287Z,24.30
2023-05-23T17:36:57.352Z,15.30
2023-05-23T17:39:25.133Z,7.20
2023-05-23T17:41:52.879Z,8.40
2023-05-23T17:44:20.862Z,4.70
2023-05-23T17:46:48.581Z,23.60
2023-05-23T17:49:16.545Z,8.80
2023-05-23T17:51:44.369Z,7.90
2023-05-23T17:54:12.015Z,6.70
2023-05-23T17:56:39.787Z,7.70
2023-05-23T17:59:07.664Z,7.30
2023-05-23T18:01:35.347Z,7.40
2023-05-23T18:04:03.305Z,9.30
2023-05-23T18:06:31.142Z,10.90
2023-05-23T18:08:58.912Z,6.30
2023-05-23T18:11:28.270Z,6.20
2023-05-23T18:13:55.870Z,5.10
2023-05-23T18:16:23.640Z,4.90
2023-05-23T18:18:51.847Z,18.30
2023-05-23T18:21:19.472Z,25.50
2023-05-23T18:23:47.549Z,12.00
2023-05-23T18:26:15.513Z,8.30
2023-05-23T18:28:43.082Z,11.40
2023-05-23T18:31:11.298Z,25.70
2023-05-23T18:33:38.843Z,20.40
2023-05-23T18:36:07.496Z,15.30
2023-05-23T18:38:36.226Z,16.30
2023-05-23T18:41:03.946Z,18.00
2023-05-23T18:43:31.504Z,13.20
2023-05-23T18:45:59.178Z,10.80
2023-05-23T18:48:28.882Z,8.60
2023-05-23T18:50:56.544Z,16.30
2023-05-23T18:53:24.313Z,6.50
2023-05-23T18:55:52.174Z,3.90
2023-05-23T18:58:19.946Z,9.00
2023-05-23T19:00:48.114Z,5.90
2023-05-23T19:03:17.202Z,9.20
2023-05-23T19:05:45.083Z,4.60
2023-05-23T19:08:12.740Z,9.90
2023-05-23T19:10:40.489Z,8.20
2023-05-23T19:13:08.373Z,6.10
2023-05-23T19:15:36.443Z,18.60
2023-05-23T19:18:04.246Z,19.90
2023-05-23T19:20:32.177Z,13.50
2023-05-23T19:23:01.175Z,11.60
2023-05-23T19:25:28.847Z,6.40
2023-05-23T19:27:56.497Z,11.80
2023-05-23T19:30:24.679Z,15.50
2023-05-23T19:32:52.360Z,9.10
2023-05-23T19:35:20.247Z,8.50
2023-05-23T19:37:49.603Z,5.80
2023-05-23T19:40:17.577Z,5.80
2023-05-23T19:42:45.236Z,8.40
2023-05-23T19:45:13.826Z,11.10
2023-05-23T19:47:41.712Z,10.00
2023-05-23T19:50:13.039Z,8.20
2023-05-23T19:52:41.735Z,8.80
2023-05-23T19:55:10.559Z,8.50
2023-05-23T19:57:38.283Z,7.50
2023-05-23T20:00:07.204Z,5.10
2023-05-23T20:02:34.870Z,9.20
2023-05-23T20:05:02.593Z,9.50
2023-05-23T20:07:30.256Z,5.70
2023-05-23T20:09:57.880Z,7.40
2023-05-23T20:12:25.588Z,10.30
2023-05-23T20:14:53.258Z,6.30
2023-05-23T20:17:21.180Z,6.20
2023-05-23T20:19:49.389Z,10.70
2023-05-23T20:22:17.056Z,7.50
2023-05-23T20:24:44.817Z,7.70
2023-05-23T20:27:12.598Z,9.30
2023-05-23T20:29:40.243Z,6.50
2023-05-23T20:32:08.012Z,7.40
2023-05-23T20:34:35.980Z,5.60
2023-05-23T20:37:04.062Z,7.90
2023-05-23T20:39:31.738Z,7.40
2023-05-23T20:42:00.002Z,9.50
2023-05-23T20:44:27.651Z,8.50
2023-05-23T20:46:57.394Z,6.00
2023-05-23T20:49:25.230Z,9.20
2023-05-23T20:51:53.198Z,6.60
2023-05-23T20:54:21.273Z,7.60
2023-05-23T20:56:48.944Z,6.60
2023-05-23T20:59:16.702Z,6.50
2023-05-23T21:01:44.502Z,6.70
2023-05-23T21:04:12.330Z,7.50
2023-05-23T21:06:39.991Z,7.50
2023-05-23T21:09:09.188Z,9.00
2023-05-23T21:11:36.858Z,8.70
2023-05-23T21:14:04.515Z,7.10
2023-05-23T21:16:33.332Z,7.60
2023-05-23T21:19:01.180Z,6.00
2023-05-23T21:21:28.732Z,5.00
2023-05-23T21:23:56.500Z,8.10
2023-05-23T21:26:24.158Z,11.30
2023-05-23T21:28:51.720Z,6.10
2023-05-23T21:31:26.611Z,5.00
2023-05-23T21:34:11.043Z,8.20
2023-05-23T21:36:46.661Z,5.10
2023-05-23T21:39:14.215Z,6.20
2023-05-23T21:41:41.776Z,8.40
2023-05-23T21:44:09.333Z,4.80
2023-05-23T21:46:37.548Z,5.30
2023-05-23T21:49:05.377Z,6.80
2023-05-23T21:51:32.935Z,6.80
2023-05-23T21:54:01.010Z,7.70
2023-05-23T21:56:29.097Z,6.50
2023-05-23T21:58:56.745Z,10.30
2023-05-23T22:01:24.473Z,4.80
2023-05-23T22:03:52.292Z,5.10
2023-05-23T22:06:19.832Z,4.50
2023-05-23T22:08:47.409Z,7.30
2023-05-23T22:11:15.412Z,4.90
2023-05-23T22:13:43.230Z,5.40
2023-05-23T22:16:10.940Z,6.00
2023-05-23T22:18:51.424Z,6.10
2023-05-23T22:21:19.745Z,9.20
2023-05-23T22:23:47.297Z,5.00
2023-05-23T22:26:14.961Z,6.00
2023-05-23T22:28:42.623Z,8.40
2023-05-23T22:31:12.729Z,7.50
2023-05-23T22:33:41.376Z,6.50
2023-05-23T22:36:09.938Z,6.90
2023-05-23T22:38:38.090Z,8.10
2023-05-23T22:41:05.642Z,6.70
2023-05-23T22:43:33.353Z,7.20
2023-05-23T22:46:01.083Z,7.60
2023-05-23T22:48:28.940Z,5.30
2023-05-23T22:50:57.318Z,5.10
2023-05-23T22:53:25.088Z,4.70
2023-05-23T22:55:52.584Z,4.80
2023-05-23T22:58:20.305Z,7.60
2023-05-23T23:00:47.992Z,6.90
2023-05-23T23:03:16.112Z,7.20
2023-05-23T23:07:24.159Z,7.80
2023-05-23T23:09:51.721Z,4.70
2023-05-23T23:12:19.385Z,5.40
2023-05-23T23:14:47.764Z,10.00
2023-05-23T23:17:15.461Z,8.00
2023-05-23T23:19:43.304Z,6.20
2023-05-23T23:22:11.361Z,5.80
2023-05-23T23:24:39.932Z,7.30
2023-05-23T23:27:07.712Z,7.30
2023-05-23T23:29:35.370Z,5.50
2023-05-23T23:32:03.649Z,7.40
2023-05-23T23:34:33.466Z,9.50
2023-05-23T23:37:01.433Z,10.00
2023-05-23T23:39:29.099Z,7.40
2023-05-23T23:41:56.755Z,6.10
2023-05-23T23:44:24.317Z,5.00
2023-05-23T23:46:51.908Z,8.50
2023-05-23T23:49:19.943Z,5.50
2023-05-23T23:51:47.609Z,7.10
2023-05-23T23:54:15.272Z,6.60
2023-05-23T23:56:42.930Z,7.20
2023-05-23T23:59:10.796Z,5.70
